Pagrindinis puslapis
METAR-TAF:

METAR-TAF

Oro uostai :

Kupangas, Indonezija

platuma: 10-10-17S, ilguma: 123-40-16E, Aukštis: 102 m

Dabartinis oras

Ataskaita buvo paskelbta 34 minutes, ne 07:30 UTC
Vėjas 23 kt iš Rytų/Pietryčių
Temperatūra 33°C
Drėgmė 41%
Slėgis 1008 hPa
Matomumas 10 km arba daugiau
Mažai debesys ne aukštis 1800 ft

METAR: WATT 010730Z 11023KT 9999 FEW018 33/18 Q1008 NOSIG

Laikas: 15:04 (08:04 UTC)

Prognozė

Ataskaita buvo paskelbta 3 valandos ir 4 minutes, ne 05:00 UTC
Prognozė galioja nuo 01 metu 06 UTC su 02 metu 06 UTC
Vėjas 22 kt iš Rytų
Matomumas: 9000 m
Išsisklaidę debesys ne aukštis 1800 ft
Tapsmas
nuo 01 metu 10 UTC su 01 metu 11 UTC
Vėjas 10 kt iš Rytų

TAF: WATT 010500Z 0106/0206 10022KT 9000 SCT018 BECMG 0110/0111 10010KT

Orai ataskaitas ir orų prognozės (METAR, TAF).

turimą stotys yra geltonos ir raudonos taškus žemėlapyje.

Perkelti pele per norėdami pamatyti stoties vardą.

Tada spustelėkite, norėdami matyti oro stebėjimo ir prognozės.

Norėdami pakeisti žemėlapį: spustelėkite ant žalios mygtukų su juodo kryžiaus žemyn,; žalią mygtuką su brūkšneliu, jei norite nutolinti; arba žalių rodyklių gretimoms žemėlapius.


METAR-TAF: